sensor_id;sensor_type;location;lat;lon;timestamp;P1;durP1;ratioP1;P2;durP2;ratioP2
19225;SDS011;9747;48.536;12.522;2024-03-23T00:51:07;2.40;;;2.28;;
19225;SDS011;9747;48.536;12.522;2024-03-23T00:53:35;2.40;;;2.30;;
19225;SDS011;9747;48.536;12.522;2024-03-23T00:56:03;3.08;;;2.88;;
19225;SDS011;9747;48.536;12.522;2024-03-23T00:58:30;2.42;;;2.30;;
19225;SDS011;9747;48.536;12.522;2024-03-23T01:00:57;2.30;;;2.20;;
19225;SDS011;9747;48.536;12.522;2024-03-23T01:03:24;2.20;;;2.10;;
19225;SDS011;9747;48.536;12.522;2024-03-23T01:05:51;2.33;;;2.15;;
19225;SDS011;9747;48.536;12.522;2024-03-23T01:08:20;2.60;;;2.40;;
19225;SDS011;9747;48.536;12.522;2024-03-23T01:10:53;2.15;;;1.95;;
19225;SDS011;9747;48.536;12.522;2024-03-23T01:13:21;2.42;;;2.22;;
19225;SDS011;9747;48.536;12.522;2024-03-23T01:15:49;2.22;;;2.10;;
19225;SDS011;9747;48.536;12.522;2024-03-23T01:18:17;2.47;;;2.30;;
19225;SDS011;9747;48.536;12.522;2024-03-23T01:20:44;1.90;;;1.80;;
19225;SDS011;9747;48.536;12.522;2024-03-23T01:23:11;2.00;;;1.90;;
19225;SDS011;9747;48.536;12.522;2024-03-23T01:25:40;2.13;;;2.03;;
19225;SDS011;9747;48.536;12.522;2024-03-23T01:28:07;2.63;;;2.38;;
19225;SDS011;9747;48.536;12.522;2024-03-23T01:30:34;2.15;;;2.03;;
19225;SDS011;9747;48.536;12.522;2024-03-23T01:33:01;2.33;;;2.22;;
19225;SDS011;9747;48.536;12.522;2024-03-23T01:35:29;2.58;;;2.40;;
19225;SDS011;9747;48.536;12.522;2024-03-23T01:37:56;1.98;;;1.88;;
19225;SDS011;9747;48.536;12.522;2024-03-23T01:40:23;2.28;;;2.17;;
19225;SDS011;9747;48.536;12.522;2024-03-23T01:42:57;2.10;;;2.00;;
19225;SDS011;9747;48.536;12.522;2024-03-23T01:45:24;2.15;;;2.05;;
19225;SDS011;9747;48.536;12.522;2024-03-23T01:47:51;2.15;;;2.05;;
19225;SDS011;9747;48.536;12.522;2024-03-23T01:50:19;2.47;;;2.28;;
19225;SDS011;9747;48.536;12.522;2024-03-23T01:52:46;2.50;;;2.40;;
19225;SDS011;9747;48.536;12.522;2024-03-23T01:55:14;2.45;;;2.35;;
19225;SDS011;9747;48.536;12.522;2024-03-23T01:57:41;2.60;;;2.40;;
19225;SDS011;9747;48.536;12.522;2024-03-23T02:00:10;2.58;;;2.47;;
19225;SDS011;9747;48.536;12.522;2024-03-23T02:02:41;2.67;;;2.47;;
19225;SDS011;9747;48.536;12.522;2024-03-23T02:05:10;2.25;;;2.05;;
19225;SDS011;9747;48.536;12.522;2024-03-23T02:07:37;2.58;;;2.38;;
19225;SDS011;9747;48.536;12.522;2024-03-23T02:10:05;2.60;;;2.40;;
19225;SDS011;9747;48.536;12.522;2024-03-23T02:12:33;2.17;;;2.08;;
19225;SDS011;9747;48.536;12.522;2024-03-23T02:15:01;2.40;;;2.30;;
19225;SDS011;9747;48.536;12.522;2024-03-23T02:17:29;2.45;;;2.33;;
19225;SDS011;9747;48.536;12.522;2024-03-23T02:20:00;2.22;;;2.13;;
19225;SDS011;9747;48.536;12.522;2024-03-23T02:22:34;2.38;;;2.17;;
19225;SDS011;9747;48.536;12.522;2024-03-23T02:25:05;2.45;;;2.28;;
19225;SDS011;9747;48.536;12.522;2024-03-23T02:27:32;2.17;;;2.08;;
19225;SDS011;9747;48.536;12.522;2024-03-23T02:30:01;2.45;;;1.83;;
19225;SDS011;9747;48.536;12.522;2024-03-23T02:32:28;1.95;;;1.85;;
19225;SDS011;9747;48.536;12.522;2024-03-23T02:34:56;1.77;;;1.67;;
19225;SDS011;9747;48.536;12.522;2024-03-23T02:37:22;2.20;;;2.10;;
19225;SDS011;9747;48.536;12.522;2024-03-23T02:39:50;2.08;;;1.98;;
19225;SDS011;9747;48.536;12.522;2024-03-23T02:42:18;2.03;;;1.92;;
19225;SDS011;9747;48.536;12.522;2024-03-23T02:44:45;1.98;;;1.88;;
19225;SDS011;9747;48.536;12.522;2024-03-23T02:47:12;1.98;;;1.85;;
19225;SDS011;9747;48.536;12.522;2024-03-23T02:49:39;2.10;;;2.00;;
19225;SDS011;9747;48.536;12.522;2024-03-23T02:52:06;2.00;;;1.90;;
19225;SDS011;9747;48.536;12.522;2024-03-23T02:54:33;2.00;;;1.90;;
19225;SDS011;9747;48.536;12.522;2024-03-23T02:57:00;2.20;;;2.00;;
19225;SDS011;9747;48.536;12.522;2024-03-23T02:59:29;2.10;;;2.00;;
19225;SDS011;9747;48.536;12.522;2024-03-23T03:01:55;2.00;;;1.90;;
19225;SDS011;9747;48.536;12.522;2024-03-23T03:04:25;2.00;;;1.90;;
19225;SDS011;9747;48.536;12.522;2024-03-23T03:06:51;1.98;;;1.88;;
19225;SDS011;9747;48.536;12.522;2024-03-23T03:09:19;2.22;;;2.13;;
19225;SDS011;9747;48.536;12.522;2024-03-23T03:11:46;1.85;;;1.75;;
19225;SDS011;9747;48.536;12.522;2024-03-23T03:14:14;2.25;;;2.05;;
19225;SDS011;9747;48.536;12.522;2024-03-23T03:16:41;2.00;;;1.90;;
19225;SDS011;9747;48.536;12.522;2024-03-23T03:19:09;2.22;;;1.90;;
19225;SDS011;9747;48.536;12.522;2024-03-23T03:21:36;1.77;;;1.75;;
19225;SDS011;9747;48.536;12.522;2024-03-23T03:24:05;1.90;;;1.80;;
19225;SDS011;9747;48.536;12.522;2024-03-23T03:26:32;1.90;;;1.80;;
19225;SDS011;9747;48.536;12.522;2024-03-23T03:29:00;2.20;;;2.10;;
19225;SDS011;9747;48.536;12.522;2024-03-23T03:31:27;1.85;;;1.75;;
19225;SDS011;9747;48.536;12.522;2024-03-23T03:33:56;2.08;;;1.95;;
19225;SDS011;9747;48.536;12.522;2024-03-23T03:36:23;1.83;;;1.73;;
19225;SDS011;9747;48.536;12.522;2024-03-23T03:38:51;1.55;;;1.55;;
19225;SDS011;9747;48.536;12.522;2024-03-23T03:41:18;2.00;;;1.80;;
19225;SDS011;9747;48.536;12.522;2024-03-23T03:43:46;1.90;;;1.80;;
19225;SDS011;9747;48.536;12.522;2024-03-23T03:46:13;1.90;;;1.80;;
19225;SDS011;9747;48.536;12.522;2024-03-23T03:48:40;1.83;;;1.73;;
19225;SDS011;9747;48.536;12.522;2024-03-23T03:51:08;2.40;;;2.05;;
19225;SDS011;9747;48.536;12.522;2024-03-23T03:53:36;1.80;;;1.70;;
19225;SDS011;9747;48.536;12.522;2024-03-23T03:56:03;1.85;;;1.80;;
19225;SDS011;9747;48.536;12.522;2024-03-23T03:58:32;1.98;;;1.88;;
19225;SDS011;9747;48.536;12.522;2024-03-23T04:00:58;1.90;;;1.80;;
19225;SDS011;9747;48.536;12.522;2024-03-23T04:03:26;1.80;;;1.70;;
19225;SDS011;9747;48.536;12.522;2024-03-23T04:05:53;1.80;;;1.70;;
19225;SDS011;9747;48.536;12.522;2024-03-23T04:08:22;1.77;;;1.67;;
19225;SDS011;9747;48.536;12.522;2024-03-23T04:10:49;1.77;;;1.67;;
19225;SDS011;9747;48.536;12.522;2024-03-23T04:13:16;1.90;;;1.80;;
19225;SDS011;9747;48.536;12.522;2024-03-23T04:15:42;1.80;;;1.70;;
19225;SDS011;9747;48.536;12.522;2024-03-23T04:18:10;1.77;;;1.67;;
19225;SDS011;9747;48.536;12.522;2024-03-23T04:20:36;1.90;;;1.70;;
19225;SDS011;9747;48.536;12.522;2024-03-23T04:23:04;1.88;;;1.77;;
19225;SDS011;9747;48.536;12.522;2024-03-23T04:25:32;1.90;;;1.80;;
19225;SDS011;9747;48.536;12.522;2024-03-23T04:27:59;1.60;;;1.60;;
19225;SDS011;9747;48.536;12.522;2024-03-23T04:30:26;2.00;;;1.90;;
19225;SDS011;9747;48.536;12.522;2024-03-23T04:32:54;1.63;;;1.52;;
19225;SDS011;9747;48.536;12.522;2024-03-23T04:35:22;1.95;;;1.85;;
19225;SDS011;9747;48.536;12.522;2024-03-23T04:37:50;1.90;;;1.80;;
19225;SDS011;9747;48.536;12.522;2024-03-23T04:40:18;1.90;;;1.80;;
19225;SDS011;9747;48.536;12.522;2024-03-23T04:42:47;1.60;;;1.55;;
19225;SDS011;9747;48.536;12.522;2024-03-23T04:45:15;1.65;;;1.55;;
19225;SDS011;9747;48.536;12.522;2024-03-23T04:47:42;1.90;;;1.80;;
19225;SDS011;9747;48.536;12.522;2024-03-23T04:50:10;1.73;;;1.63;;
19225;SDS011;9747;48.536;12.522;2024-03-23T04:52:38;1.48;;;1.42;;
19225;SDS011;9747;48.536;12.522;2024-03-23T04:55:08;1.60;;;1.60;;
19225;SDS011;9747;48.536;12.522;2024-03-23T04:57:37;1.42;;;1.38;;
19225;SDS011;9747;48.536;12.522;2024-03-23T05:00:06;1.67;;;1.60;;
19225;SDS011;9747;48.536;12.522;2024-03-23T05:02:42;1.63;;;1.52;;
19225;SDS011;9747;48.536;12.522;2024-03-23T05:05:11;1.63;;;1.52;;
19225;SDS011;9747;48.536;12.522;2024-03-23T05:07:38;1.30;;;1.30;;
19225;SDS011;9747;48.536;12.522;2024-03-23T05:10:07;1.40;;;1.30;;
19225;SDS011;9747;48.536;12.522;2024-03-23T05:12:36;1.50;;;1.40;;
19225;SDS011;9747;48.536;12.522;2024-03-23T05:15:05;1.30;;;1.30;;
19225;SDS011;9747;48.536;12.522;2024-03-23T05:17:33;1.75;;;1.65;;
19225;SDS011;9747;48.536;12.522;2024-03-23T05:20:01;1.70;;;1.60;;
19225;SDS011;9747;48.536;12.522;2024-03-23T05:22:28;1.42;;;1.33;;
19225;SDS011;9747;48.536;12.522;2024-03-23T05:24:56;2.05;;;1.23;;
19225;SDS011;9747;48.536;12.522;2024-03-23T05:27:22;1.50;;;1.40;;
19225;SDS011;9747;48.536;12.522;2024-03-23T05:29:50;1.50;;;1.50;;
19225;SDS011;9747;48.536;12.522;2024-03-23T05:32:17;1.50;;;1.40;;
19225;SDS011;9747;48.536;12.522;2024-03-23T05:34:45;1.50;;;1.50;;
19225;SDS011;9747;48.536;12.522;2024-03-23T05:37:12;1.30;;;1.30;;
19225;SDS011;9747;48.536;12.522;2024-03-23T05:39:39;1.40;;;1.40;;
19225;SDS011;9747;48.536;12.522;2024-03-23T05:42:06;1.60;;;1.50;;
19225;SDS011;9747;48.536;12.522;2024-03-23T05:44:33;1.17;;;1.10;;
19225;SDS011;9747;48.536;12.522;2024-03-23T05:47:00;1.35;;;1.35;;
19225;SDS011;9747;48.536;12.522;2024-03-23T05:49:29;1.50;;;1.40;;
19225;SDS011;9747;48.536;12.522;2024-03-23T05:51:55;1.30;;;1.30;;
19225;SDS011;9747;48.536;12.522;2024-03-23T05:54:23;1.25;;;1.25;;
19225;SDS011;9747;48.536;12.522;2024-03-23T05:56:49;1.35;;;1.35;;
19225;SDS011;9747;48.536;12.522;2024-03-23T05:59:20;1.50;;;1.40;;
19225;SDS011;9747;48.536;12.522;2024-03-23T06:01:47;1.23;;;1.15;;
19225;SDS011;9747;48.536;12.522;2024-03-23T06:04:14;1.58;;;1.48;;
19225;SDS011;9747;48.536;12.522;2024-03-23T06:06:42;1.20;;;1.20;;
19225;SDS011;9747;48.536;12.522;2024-03-23T06:09:10;1.33;;;1.33;;
19225;SDS011;9747;48.536;12.522;2024-03-23T06:11:36;1.30;;;1.30;;
19225;SDS011;9747;48.536;12.522;2024-03-23T06:14:04;1.20;;;1.20;;
19225;SDS011;9747;48.536;12.522;2024-03-23T06:16:31;1.20;;;1.20;;
19225;SDS011;9747;48.536;12.522;2024-03-23T06:18:58;1.50;;;1.40;;
19225;SDS011;9747;48.536;12.522;2024-03-23T06:21:25;1.02;;;1.02;;
19225;SDS011;9747;48.536;12.522;2024-03-23T06:23:54;1.55;;;1.45;;
19225;SDS011;9747;48.536;12.522;2024-03-23T06:26:21;1.45;;;1.35;;
19225;SDS011;9747;48.536;12.522;2024-03-23T06:28:48;1.40;;;1.30;;
19225;SDS011;9747;48.536;12.522;2024-03-23T06:31:15;1.20;;;1.17;;
19225;SDS011;9747;48.536;12.522;2024-03-23T06:33:43;1.85;;;1.52;;
19225;SDS011;9747;48.536;12.522;2024-03-23T06:36:09;1.50;;;1.40;;
19225;SDS011;9747;48.536;12.522;2024-03-23T06:38:37;1.25;;;1.25;;
19225;SDS011;9747;48.536;12.522;2024-03-23T06:41:05;1.40;;;1.30;;
19225;SDS011;9747;48.536;12.522;2024-03-23T06:43:33;1.23;;;1.23;;
19225;SDS011;9747;48.536;12.522;2024-03-23T06:45:59;1.40;;;1.40;;
19225;SDS011;9747;48.536;12.522;2024-03-23T06:48:29;1.40;;;1.10;;
19225;SDS011;9747;48.536;12.522;2024-03-23T06:50:56;1.42;;;1.33;;
19225;SDS011;9747;48.536;12.522;2024-03-23T06:53:23;1.13;;;1.13;;
19225;SDS011;9747;48.536;12.522;2024-03-23T06:55:50;1.13;;;1.13;;
19225;SDS011;9747;48.536;12.522;2024-03-23T06:58:20;1.10;;;1.10;;
19225;SDS011;9747;48.536;12.522;2024-03-23T07:00:47;1.33;;;1.20;;
19225;SDS011;9747;48.536;12.522;2024-03-23T07:03:14;1.13;;;1.13;;
19225;SDS011;9747;48.536;12.522;2024-03-23T07:05:41;1.33;;;1.30;;
19225;SDS011;9747;48.536;12.522;2024-03-23T07:08:09;1.20;;;1.20;;
19225;SDS011;9747;48.536;12.522;2024-03-23T07:10:37;2.20;;;1.45;;
19225;SDS011;9747;48.536;12.522;2024-03-23T07:13:06;1.27;;;1.10;;
19225;SDS011;9747;48.536;12.522;2024-03-23T07:15:34;1.40;;;1.30;;
19225;SDS011;9747;48.536;12.522;2024-03-23T07:18:02;1.13;;;1.13;;
19225;SDS011;9747;48.536;12.522;2024-03-23T07:20:28;1.13;;;1.13;;
19225;SDS011;9747;48.536;12.522;2024-03-23T07:22:57;1.13;;;1.13;;
19225;SDS011;9747;48.536;12.522;2024-03-23T07:25:23;2.05;;;1.30;;
19225;SDS011;9747;48.536;12.522;2024-03-23T07:27:57;1.33;;;1.17;;
19225;SDS011;9747;48.536;12.522;2024-03-23T07:30:23;1.10;;;1.10;;
19225;SDS011;9747;48.536;12.522;2024-03-23T07:32:53;1.30;;;1.30;;
19225;SDS011;9747;48.536;12.522;2024-03-23T07:35:19;4.18;;;1.75;;
19225;SDS011;9747;48.536;12.522;2024-03-23T07:37:47;6.68;;;1.90;;
19225;SDS011;9747;48.536;12.522;2024-03-23T07:40:14;2.78;;;1.90;;
19225;SDS011;9747;48.536;12.522;2024-03-23T07:42:41;7.65;;;1.83;;
19225;SDS011;9747;48.536;12.522;2024-03-23T07:45:08;4.28;;;1.90;;
19225;SDS011;9747;48.536;12.522;2024-03-23T07:47:37;3.38;;;1.77;;
19225;SDS011;9747;48.536;12.522;2024-03-23T07:50:05;6.57;;;2.33;;
19225;SDS011;9747;48.536;12.522;2024-03-23T07:52:35;4.90;;;2.00;;
19225;SDS011;9747;48.536;12.522;2024-03-23T07:55:01;18.83;;;2.55;;
19225;SDS011;9747;48.536;12.522;2024-03-23T07:57:29;7.80;;;2.13;;
19225;SDS011;9747;48.536;12.522;2024-03-23T07:59:56;4.72;;;2.10;;
19225;SDS011;9747;48.536;12.522;2024-03-23T08:02:23;2.33;;;1.90;;
19225;SDS011;9747;48.536;12.522;2024-03-23T08:04:50;6.18;;;1.88;;
19225;SDS011;9747;48.536;12.522;2024-03-23T08:07:18;7.25;;;2.35;;
19225;SDS011;9747;48.536;12.522;2024-03-23T08:09:45;2.15;;;1.92;;
19225;SDS011;9747;48.536;12.522;2024-03-23T08:12:13;2.00;;;1.75;;
19225;SDS011;9747;48.536;12.522;2024-03-23T08:14:40;4.65;;;1.90;;
19225;SDS011;9747;48.536;12.522;2024-03-23T08:17:07;8.80;;;2.05;;
19225;SDS011;9747;48.536;12.522;2024-03-23T08:19:34;4.43;;;2.05;;
19225;SDS011;9747;48.536;12.522;2024-03-23T08:22:01;9.02;;;2.65;;
19225;SDS011;9747;48.536;12.522;2024-03-23T08:24:30;5.32;;;2.25;;
19225;SDS011;9747;48.536;12.522;2024-03-23T08:26:57;4.13;;;1.80;;
19225;SDS011;9747;48.536;12.522;2024-03-23T08:29:23;3.25;;;1.70;;
19225;SDS011;9747;48.536;12.522;2024-03-23T08:31:51;4.90;;;1.90;;
19225;SDS011;9747;48.536;12.522;2024-03-23T08:34:18;2.40;;;1.90;;
19225;SDS011;9747;48.536;12.522;2024-03-23T08:36:45;3.30;;;1.83;;
19225;SDS011;9747;48.536;12.522;2024-03-23T08:39:12;4.03;;;2.08;;
19225;SDS011;9747;48.536;12.522;2024-03-23T08:41:41;5.40;;;2.05;;
19225;SDS011;9747;48.536;12.522;2024-03-23T08:44:11;3.38;;;1.60;;
19225;SDS011;9747;48.536;12.522;2024-03-23T08:46:38;3.30;;;1.60;;
19225;SDS011;9747;48.536;12.522;2024-03-23T08:49:05;3.08;;;1.80;;
19225;SDS011;9747;48.536;12.522;2024-03-23T08:51:32;2.15;;;1.95;;
19225;SDS011;9747;48.536;12.522;2024-03-23T08:53:58;3.28;;;1.80;;
19225;SDS011;9747;48.536;12.522;2024-03-23T08:56:26;5.72;;;1.88;;
19225;SDS011;9747;48.536;12.522;2024-03-23T08:58:54;4.50;;;2.40;;
19225;SDS011;9747;48.536;12.522;2024-03-23T09:01:21;4.57;;;3.03;;
19225;SDS011;9747;48.536;12.522;2024-03-23T09:03:49;3.45;;;2.45;;
19225;SDS011;9747;48.536;12.522;2024-03-23T09:06:16;3.65;;;2.35;;
19225;SDS011;9747;48.536;12.522;2024-03-23T09:08:43;3.90;;;2.92;;
19225;SDS011;9747;48.536;12.522;2024-03-23T09:11:11;2.60;;;2.40;;
19225;SDS011;9747;48.536;12.522;2024-03-23T09:13:38;3.25;;;2.60;;
19225;SDS011;9747;48.536;12.522;2024-03-23T09:16:08;3.15;;;2.30;;
19225;SDS011;9747;48.536;12.522;2024-03-23T09:18:35;3.88;;;2.40;;
19225;SDS011;9747;48.536;12.522;2024-03-23T09:21:03;3.35;;;2.28;;
19225;SDS011;9747;48.536;12.522;2024-03-23T09:23:36;5.38;;;2.63;;
19225;SDS011;9747;48.536;12.522;2024-03-23T09:26:03;6.07;;;2.40;;
19225;SDS011;9747;48.536;12.522;2024-03-23T09:28:31;5.93;;;1.90;;
19225;SDS011;9747;48.536;12.522;2024-03-23T09:31:09;2.50;;;2.00;;
19225;SDS011;9747;48.536;12.522;2024-03-23T09:33:39;3.28;;;2.30;;
19225;SDS011;9747;48.536;12.522;2024-03-23T09:36:07;3.67;;;1.70;;
19225;SDS011;9747;48.536;12.522;2024-03-23T09:38:34;3.78;;;1.77;;
19225;SDS011;9747;48.536;12.522;2024-03-23T09:41:06;3.92;;;2.00;;
19225;SDS011;9747;48.536;12.522;2024-03-23T09:43:34;1.67;;;1.58;;
19225;SDS011;9747;48.536;12.522;2024-03-23T09:46:02;4.97;;;2.20;;
19225;SDS011;9747;48.536;12.522;2024-03-23T09:48:30;4.07;;;2.30;;
19225;SDS011;9747;48.536;12.522;2024-03-23T09:50:58;6.35;;;5.20;;
19225;SDS011;9747;48.536;12.522;2024-03-23T09:53:25;5.40;;;4.90;;
19225;SDS011;9747;48.536;12.522;2024-03-23T09:55:52;6.32;;;4.85;;
19225;SDS011;9747;48.536;12.522;2024-03-23T09:58:20;8.45;;;4.70;;
19225;SDS011;9747;48.536;12.522;2024-03-23T10:00:49;6.63;;;4.68;;
19225;SDS011;9747;48.536;12.522;2024-03-23T10:03:16;8.05;;;5.38;;
19225;SDS011;9747;48.536;12.522;2024-03-23T10:05:45;6.88;;;5.30;;
19225;SDS011;9747;48.536;12.522;2024-03-23T10:08:17;12.63;;;8.23;;
19225;SDS011;9747;48.536;12.522;2024-03-23T10:10:45;21.35;;;13.77;;
19225;SDS011;9747;48.536;12.522;2024-03-23T10:13:23;13.10;;;9.05;;
19225;SDS011;9747;48.536;12.522;2024-03-23T10:15:55;12.63;;;7.75;;
19225;SDS011;9747;48.536;12.522;2024-03-23T10:18:23;11.75;;;7.30;;
19225;SDS011;9747;48.536;12.522;2024-03-23T10:21:07;9.15;;;6.72;;
19225;SDS011;9747;48.536;12.522;2024-03-23T10:23:36;9.82;;;5.97;;
19225;SDS011;9747;48.536;12.522;2024-03-23T10:26:14;9.00;;;5.70;;
19225;SDS011;9747;48.536;12.522;2024-03-23T10:28:50;9.30;;;5.80;;
19225;SDS011;9747;48.536;12.522;2024-03-23T10:31:19;13.07;;;6.10;;
19225;SDS011;9747;48.536;12.522;2024-03-23T10:33:46;11.82;;;6.32;;
19225;SDS011;9747;48.536;12.522;2024-03-23T10:36:15;7.32;;;5.32;;
19225;SDS011;9747;48.536;12.522;2024-03-23T10:38:42;9.82;;;5.63;;
19225;SDS011;9747;48.536;12.522;2024-03-23T10:41:10;9.57;;;5.40;;
19225;SDS011;9747;48.536;12.522;2024-03-23T10:43:37;9.23;;;5.90;;
19225;SDS011;9747;48.536;12.522;2024-03-23T10:46:05;9.95;;;6.05;;
19225;SDS011;9747;48.536;12.522;2024-03-23T10:48:32;8.32;;;5.55;;
19225;SDS011;9747;48.536;12.522;2024-03-23T10:51:00;9.05;;;5.57;;
19225;SDS011;9747;48.536;12.522;2024-03-23T10:53:28;7.97;;;5.07;;
19225;SDS011;9747;48.536;12.522;2024-03-23T10:55:55;6.75;;;4.50;;
19225;SDS011;9747;48.536;12.522;2024-03-23T10:58:23;7.43;;;4.95;;
19225;SDS011;9747;48.536;12.522;2024-03-23T11:00:54;7.40;;;4.93;;
19225;SDS011;9747;48.536;12.522;2024-03-23T11:03:30;7.82;;;5.00;;
19225;SDS011;9747;48.536;12.522;2024-03-23T11:05:59;6.80;;;4.78;;
19225;SDS011;9747;48.536;12.522;2024-03-23T11:08:34;7.65;;;4.93;;
19225;SDS011;9747;48.536;12.522;2024-03-23T11:11:13;7.10;;;4.68;;
19225;SDS011;9747;48.536;12.522;2024-03-23T11:13:42;7.13;;;4.50;;
19225;SDS011;9747;48.536;12.522;2024-03-23T11:16:16;6.80;;;4.50;;
19225;SDS011;9747;48.536;12.522;2024-03-23T11:18:47;6.38;;;4.45;;
19225;SDS011;9747;48.536;12.522;2024-03-23T11:24:20;4.88;;;4.00;;
19225;SDS011;9747;48.536;12.522;2024-03-23T11:26:48;7.40;;;4.55;;
19225;SDS011;9747;48.536;12.522;2024-03-23T11:29:15;5.65;;;3.90;;
19225;SDS011;9747;48.536;12.522;2024-03-23T11:31:47;7.25;;;4.18;;
19225;SDS011;9747;48.536;12.522;2024-03-23T11:34:14;8.63;;;3.97;;
19225;SDS011;9747;48.536;12.522;2024-03-23T11:36:42;6.13;;;4.40;;
19225;SDS011;9747;48.536;12.522;2024-03-23T11:39:13;5.53;;;3.75;;
19225;SDS011;9747;48.536;12.522;2024-03-23T11:41:49;6.35;;;4.07;;
19225;SDS011;9747;48.536;12.522;2024-03-23T11:44:17;7.03;;;4.30;;
19225;SDS011;9747;48.536;12.522;2024-03-23T11:46:46;6.35;;;4.10;;
19225;SDS011;9747;48.536;12.522;2024-03-23T11:49:22;8.25;;;4.22;;
19225;SDS011;9747;48.536;12.522;2024-03-23T11:51:50;4.72;;;3.40;;
19225;SDS011;9747;48.536;12.522;2024-03-23T11:54:19;6.32;;;3.63;;
19225;SDS011;9747;48.536;12.522;2024-03-23T11:56:55;4.85;;;3.40;;
19225;SDS011;9747;48.536;12.522;2024-03-23T11:59:35;5.82;;;3.47;;
19225;SDS011;9747;48.536;12.522;2024-03-23T12:02:06;5.97;;;3.30;;
19225;SDS011;9747;48.536;12.522;2024-03-23T12:04:33;4.82;;;3.50;;
19225;SDS011;9747;48.536;12.522;2024-03-23T12:07:08;4.15;;;3.22;;
19225;SDS011;9747;48.536;12.522;2024-03-23T12:09:36;4.07;;;3.22;;
19225;SDS011;9747;48.536;12.522;2024-03-23T12:12:10;3.88;;;3.00;;
19225;SDS011;9747;48.536;12.522;2024-03-23T12:14:40;6.10;;;3.42;;
19225;SDS011;9747;48.536;12.522;2024-03-23T12:17:08;4.20;;;2.97;;
19225;SDS011;9747;48.536;12.522;2024-03-23T12:19:39;4.10;;;3.13;;
19225;SDS011;9747;48.536;12.522;2024-03-23T12:22:08;3.55;;;2.88;;
19225;SDS011;9747;48.536;12.522;2024-03-23T12:24:35;4.47;;;3.08;;
19225;SDS011;9747;48.536;12.522;2024-03-23T12:27:04;5.72;;;2.90;;
19225;SDS011;9747;48.536;12.522;2024-03-23T12:29:32;3.25;;;2.75;;
19225;SDS011;9747;48.536;12.522;2024-03-23T12:32:00;3.03;;;2.55;;
19225;SDS011;9747;48.536;12.522;2024-03-23T12:34:27;2.53;;;2.33;;
19225;SDS011;9747;48.536;12.522;2024-03-23T12:36:55;5.45;;;2.72;;
19225;SDS011;9747;48.536;12.522;2024-03-23T12:39:22;8.88;;;2.58;;
19225;SDS011;9747;48.536;12.522;2024-03-23T12:41:49;5.55;;;2.65;;
19225;SDS011;9747;48.536;12.522;2024-03-23T12:44:17;2.53;;;2.22;;
19225;SDS011;9747;48.536;12.522;2024-03-23T12:46:47;7.53;;;2.38;;
19225;SDS011;9747;48.536;12.522;2024-03-23T12:49:13;3.15;;;2.40;;
19225;SDS011;9747;48.536;12.522;2024-03-23T12:51:42;6.38;;;2.92;;
19225;SDS011;9747;48.536;12.522;2024-03-23T12:54:19;3.90;;;2.60;;
19225;SDS011;9747;48.536;12.522;2024-03-23T12:56:46;4.65;;;2.65;;
19225;SDS011;9747;48.536;12.522;2024-03-23T12:59:13;3.25;;;2.40;;
19225;SDS011;9747;48.536;12.522;2024-03-23T13:01:41;2.40;;;2.08;;
19225;SDS011;9747;48.536;12.522;2024-03-23T13:04:10;2.25;;;2.05;;
19225;SDS011;9747;48.536;12.522;2024-03-23T13:06:37;2.83;;;1.92;;
19225;SDS011;9747;48.536;12.522;2024-03-23T13:09:04;3.75;;;2.10;;
19225;SDS011;9747;48.536;12.522;2024-03-23T13:11:37;3.47;;;2.35;;
19225;SDS011;9747;48.536;12.522;2024-03-23T13:14:03;2.15;;;1.98;;
19225;SDS011;9747;48.536;12.522;2024-03-23T13:16:31;2.20;;;2.00;;
19225;SDS011;9747;48.536;12.522;2024-03-23T13:18:58;3.40;;;2.10;;
19225;SDS011;9747;48.536;12.522;2024-03-23T13:21:27;2.72;;;2.05;;
19225;SDS011;9747;48.536;12.522;2024-03-23T13:23:54;3.13;;;2.00;;
19225;SDS011;9747;48.536;12.522;2024-03-23T13:26:22;2.65;;;2.00;;
19225;SDS011;9747;48.536;12.522;2024-03-23T13:28:48;2.70;;;1.80;;
19225;SDS011;9747;48.536;12.522;2024-03-23T13:31:15;2.25;;;1.88;;
19225;SDS011;9747;48.536;12.522;2024-03-23T13:33:42;3.42;;;2.10;;
19225;SDS011;9747;48.536;12.522;2024-03-23T13:36:10;1.85;;;1.75;;
19225;SDS011;9747;48.536;12.522;2024-03-23T13:38:37;2.22;;;2.03;;
19225;SDS011;9747;48.536;12.522;2024-03-23T13:41:05;3.00;;;1.98;;
19225;SDS011;9747;48.536;12.522;2024-03-23T13:43:32;1.73;;;1.63;;
19225;SDS011;9747;48.536;12.522;2024-03-23T13:46:00;2.22;;;2.03;;
19225;SDS011;9747;48.536;12.522;2024-03-23T13:48:27;3.45;;;2.97;;
19225;SDS011;9747;48.536;12.522;2024-03-23T13:50:58;2.95;;;2.35;;
19225;SDS011;9747;48.536;12.522;2024-03-23T13:53:25;10.35;;;7.68;;
19225;SDS011;9747;48.536;12.522;2024-03-23T13:56:00;6.43;;;4.93;;
19225;SDS011;9747;48.536;12.522;2024-03-23T13:58:28;5.90;;;3.83;;
19225;SDS011;9747;48.536;12.522;2024-03-23T14:00:56;4.13;;;3.33;;
19225;SDS011;9747;48.536;12.522;2024-03-23T14:03:23;3.17;;;2.88;;
19225;SDS011;9747;48.536;12.522;2024-03-23T14:05:50;4.63;;;2.97;;
19225;SDS011;9747;48.536;12.522;2024-03-23T14:08:18;3.58;;;2.70;;
19225;SDS011;9747;48.536;12.522;2024-03-23T14:10:46;4.25;;;3.00;;
19225;SDS011;9747;48.536;12.522;2024-03-23T14:13:14;3.90;;;2.50;;
19225;SDS011;9747;48.536;12.522;2024-03-23T14:15:43;2.53;;;2.33;;
19225;SDS011;9747;48.536;12.522;2024-03-23T14:18:09;3.08;;;2.60;;
19225;SDS011;9747;48.536;12.522;2024-03-23T14:20:38;4.05;;;2.80;;
19225;SDS011;9747;48.536;12.522;2024-03-23T14:23:05;4.70;;;2.90;;
19225;SDS011;9747;48.536;12.522;2024-03-23T14:25:32;4.75;;;2.83;;
19225;SDS011;9747;48.536;12.522;2024-03-23T14:27:59;3.22;;;2.67;;
19225;SDS011;9747;48.536;12.522;2024-03-23T14:30:28;3.20;;;2.63;;
19225;SDS011;9747;48.536;12.522;2024-03-23T14:32:54;3.28;;;2.80;;
19225;SDS011;9747;48.536;12.522;2024-03-23T14:35:21;3.38;;;2.70;;
19225;SDS011;9747;48.536;12.522;2024-03-23T14:37:48;3.38;;;2.50;;
19225;SDS011;9747;48.536;12.522;2024-03-23T14:40:16;3.03;;;2.67;;
19225;SDS011;9747;48.536;12.522;2024-03-23T14:42:49;2.60;;;2.40;;
19225;SDS011;9747;48.536;12.522;2024-03-23T14:45:17;2.83;;;2.50;;
19225;SDS011;9747;48.536;12.522;2024-03-23T14:47:45;2.70;;;2.50;;
19225;SDS011;9747;48.536;12.522;2024-03-23T14:50:12;3.30;;;2.47;;
19225;SDS011;9747;48.536;12.522;2024-03-23T14:52:40;2.85;;;2.65;;
19225;SDS011;9747;48.536;12.522;2024-03-23T14:55:10;2.40;;;2.20;;
19225;SDS011;9747;48.536;12.522;2024-03-23T14:57:36;2.35;;;2.15;;
19225;SDS011;9747;48.536;12.522;2024-03-23T15:00:06;2.25;;;1.92;;
19225;SDS011;9747;48.536;12.522;2024-03-23T15:02:35;2.20;;;1.95;;
19225;SDS011;9747;48.536;12.522;2024-03-23T15:05:05;2.03;;;1.90;;
19225;SDS011;9747;48.536;12.522;2024-03-23T15:07:35;2.00;;;1.80;;
19225;SDS011;9747;48.536;12.522;2024-03-23T15:10:03;2.15;;;1.98;;
19225;SDS011;9747;48.536;12.522;2024-03-23T15:12:31;1.90;;;1.80;;
19225;SDS011;9747;48.536;12.522;2024-03-23T15:14:59;6.90;;;3.72;;
19225;SDS011;9747;48.536;12.522;2024-03-23T15:17:25;5.68;;;2.60;;
19225;SDS011;9747;48.536;12.522;2024-03-23T15:19:53;4.20;;;2.50;;
19225;SDS011;9747;48.536;12.522;2024-03-23T15:22:21;3.30;;;2.60;;
19225;SDS011;9747;48.536;12.522;2024-03-23T15:24:49;3.90;;;2.85;;
19225;SDS011;9747;48.536;12.522;2024-03-23T15:27:15;5.15;;;2.90;;
19225;SDS011;9747;48.536;12.522;2024-03-23T15:29:43;3.65;;;2.60;;
19225;SDS011;9747;48.536;12.522;2024-03-23T15:32:11;4.38;;;2.60;;
19225;SDS011;9747;48.536;12.522;2024-03-23T15:34:39;3.17;;;2.67;;
19225;SDS011;9747;48.536;12.522;2024-03-23T15:37:06;3.83;;;3.53;;
19225;SDS011;9747;48.536;12.522;2024-03-23T15:39:34;3.70;;;3.30;;
19225;SDS011;9747;48.536;12.522;2024-03-23T15:42:01;3.75;;;3.20;;
19225;SDS011;9747;48.536;12.522;2024-03-23T15:44:29;3.35;;;3.05;;
19225;SDS011;9747;48.536;12.522;2024-03-23T15:46:55;3.70;;;2.97;;